Time;durP1;ratioP1;P1;durP2;ratioP2;P2;SDS_P1;SDS_P2;PMS_P1;PMS_P2;Temp;Humidity;BMP_temperature;BMP_pressure;BME280_temperature;BME280_humidity;BME280_pressure;Samples;Min_cycle;Max_cycle;Signal;HPM_P1;HPM_P2
2022/01/13 00:02:56;;;;;;;21.93;14.03;;;;;;;-2.42;75.97;99705.38;6228052;28;20231;-72
2022/01/13 00:06:00;;;;;;;19.70;12.83;;;;;;;-2.57;76.62;99713.03;6211006;28;20289;-72
2022/01/13 00:09:03;;;;;;;22.97;14.07;;;;;;;-2.71;76.59;99705.25;6227678;28;20235;-71
2022/01/13 00:12:08;;;;;;;24.60;15.07;;;;;;;-2.77;77.43;99705.19;6226670;28;20704;-71
2022/01/13 00:15:23;;;;;;;22.37;14.87;;;;;;;-2.71;77.06;99692.31;6210874;28;20216;-71
2022/01/13 00:18:49;;;;;;;24.33;14.70;;;;;;;-2.65;77.15;99676.84;6226856;28;20216;-71
2022/01/13 00:21:58;;;;;;;23.77;13.57;;;;;;;-2.72;77.20;99690.59;6227054;28;20300;-71
2022/01/13 00:25:02;;;;;;;24.73;14.90;;;;;;;-2.84;77.07;99698.28;6227304;28;20242;-71
2022/01/13 00:28:15;;;;;;;23.47;14.73;;;;;;;-3.02;77.71;99694.72;6228245;28;20220;-71
2022/01/13 00:31:24;;;;;;;21.83;13.13;;;;;;;-3.11;78.09;99701.56;6230518;28;20733;-71
2022/01/13 00:34:27;;;;;;;24.27;13.47;;;;;;;-3.20;77.83;99710.09;6231161;28;20241;-71
2022/01/13 00:37:28;;;;;;;23.57;14.57;;;;;;;-3.25;78.60;99719.53;6222305;28;20236;-71
2022/01/13 00:40:30;;;;;;;24.83;14.70;;;;;;;-3.14;79.12;99717.88;6207750;28;20240;-71
2022/01/13 00:43:36;;;;;;;25.73;15.07;;;;;;;-3.02;78.82;99709.38;6190371;28;20703;-71
2022/01/13 00:46:44;;;;;;;25.60;14.73;;;;;;;-2.84;78.05;99698.28;6207791;28;20228;-71
2022/01/13 00:49:46;;;;;;;27.23;15.30;;;;;;;-2.81;77.93;99706.91;6221601;28;20738;-72
2022/01/13 00:52:48;;;;;;;22.23;13.70;;;;;;;-2.77;77.16;99711.22;6207924;28;20232;-71
2022/01/13 00:55:59;;;;;;;24.00;14.20;;;;;;;-2.94;77.84;99704.25;6207964;28;20355;-70
2022/01/13 00:59:07;;;;;;;24.17;15.20;;;;;;;-2.87;78.13;99708.56;6222931;28;20236;-70
2022/01/13 01:02:09;;;;;;;23.80;14.27;;;;;;;-2.77;77.72;99708.63;6207360;28;20225;-71
2022/01/13 01:05:12;;;;;;;22.70;14.50;;;;;;;-2.79;77.63;99701.72;6206830;28;20236;-71
2022/01/13 01:08:14;;;;;;;23.87;14.30;;;;;;;-2.79;77.31;99714.63;6205297;28;20710;-71
2022/01/13 01:11:18;;;;;;;24.93;14.03;;;;;;;-2.93;77.91;99721.47;6189267;28;20231;-71
2022/01/13 01:14:21;;;;;;;20.63;12.93;;;;;;;-2.98;78.02;99726.59;6204957;28;20711;-71
2022/01/13 01:17:23;;;;;;;26.87;14.33;;;;;;;-3.02;78.24;99727.44;6205149;28;20239;-71
2022/01/13 01:20:30;;;;;;;22.30;14.60;;;;;;;-2.95;78.09;99723.16;6203772;28;20227;-71
2022/01/13 01:23:38;;;;;;;25.63;13.73;;;;;;;-2.76;77.85;99725.00;6205357;28;20310;-70
2022/01/13 01:26:45;;;;;;;23.47;14.60;;;;;;;-2.62;76.87;99728.53;6204750;28;20225;-71
2022/01/13 01:29:58;;;;;;;22.17;15.00;;;;;;;-2.52;76.28;99721.69;6206286;28;20236;-72
2022/01/13 01:33:02;;;;;;;23.73;13.93;;;;;;;-2.41;76.10;99717.44;6203627;28;20247;-70
2022/01/13 01:36:05;;;;;;;26.50;15.70;;;;;;;-2.39;75.47;99713.13;6209140;28;20239;-71
2022/01/13 01:39:08;;;;;;;24.23;15.27;;;;;;;-2.38;76.05;99714.84;6230356;28;20220;-71
2022/01/13 01:42:10;;;;;;;24.57;15.30;;;;;;;-2.31;74.99;99712.31;6212885;28;20204;-71
2022/01/13 01:45:14;;;;;;;23.77;15.07;;;;;;;-2.26;75.54;99714.91;6229937;28;20219;-70
2022/01/13 01:48:20;;;;;;;24.90;14.50;;;;;;;-2.22;74.93;99710.63;6230374;28;20593;-72
2022/01/13 01:51:22;;;;;;;25.23;14.00;;;;;;;-2.16;74.47;99711.47;6229818;28;20238;-72
2022/01/13 01:54:25;;;;;;;26.17;13.40;;;;;;;-2.13;74.36;99702.88;6227857;28;20231;-72
2022/01/13 01:57:27;;;;;;;25.33;14.53;;;;;;;-2.11;74.40;99704.63;6229524;28;20695;-70
2022/01/13 02:00:29;;;;;;;22.97;14.33;;;;;;;-2.14;74.79;99698.56;6230097;28;20223;-71
2022/01/13 02:03:31;;;;;;;22.33;13.40;;;;;;;-2.19;75.23;99695.94;6228007;28;21041;-73
2022/01/13 02:06:35;;;;;;;26.47;15.03;;;;;;;-2.22;75.49;99703.72;6229352;28;20219;-71
2022/01/13 02:09:41;;;;;;;23.60;13.63;;;;;;;-2.24;75.89;99687.34;6229341;28;20220;-72
2022/01/13 02:12:50;;;;;;;21.90;12.60;;;;;;;-2.18;75.40;99691.63;6212597;28;20228;-71
2022/01/13 02:16:04;;;;;;;20.27;11.90;;;;;;;-2.13;74.83;99690.81;6227274;28;20227;-71
2022/01/13 02:19:08;;;;;;;20.97;13.03;;;;;;;-2.07;73.82;99693.41;6211507;28;20232;-71
2022/01/13 02:22:11;;;;;;;19.87;12.23;;;;;;;-2.03;72.82;99686.53;6228257;28;20235;-71
2022/01/13 02:25:17;;;;;;;20.20;12.90;;;;;;;-1.97;72.78;99686.53;6228818;28;20236;-72
2022/01/13 02:28:19;;;;;;;19.40;11.67;;;;;;;-1.88;71.67;99690.00;6229724;28;20232;-71
2022/01/13 02:31:27;;;;;;;22.20;12.70;;;;;;;-1.81;70.95;99684.84;6228085;28;20248;-72
2022/01/13 02:34:29;;;;;;;19.83;11.50;;;;;;;-1.76;70.68;99691.75;6229057;28;20228;-71
2022/01/13 02:37:30;;;;;;;18.60;11.17;;;;;;;-1.73;70.77;99685.72;6227791;28;20227;-72
2022/01/13 02:40:32;;;;;;;15.97;10.70;;;;;;;-1.72;70.63;99683.13;6227753;28;20231;-70
2022/01/13 02:43:35;;;;;;;17.27;11.07;;;;;;;-1.73;70.12;99689.16;6228527;28;20237;-71
2022/01/13 02:49:39;;;;;;;16.20;10.37;;;;;;;-1.69;69.92;99693.47;6227424;28;20236;-71
2022/01/13 02:52:42;;;;;;;18.17;10.93;;;;;;;-1.70;69.93;99686.59;6228054;28;20246;-71
2022/01/13 02:55:44;;;;;;;16.30;10.33;;;;;;;-1.72;69.23;99697.78;6228613;28;20239;-72
2022/01/13 02:58:46;;;;;;;16.37;10.00;;;;;;;-1.69;68.25;99713.31;6228372;28;20235;-71
2022/01/13 03:01:48;;;;;;;17.63;10.23;;;;;;;-1.62;67.93;99700.41;6229051;28;20227;-72
2022/01/13 03:04:50;;;;;;;17.03;10.40;;;;;;;-1.58;67.35;99712.47;6210873;28;20216;-71
2022/01/13 03:07:53;;;;;;;17.63;11.03;;;;;;;-1.59;67.63;99713.31;6228160;28;20382;-71
2022/01/13 03:10:56;;;;;;;16.97;10.23;;;;;;;-1.56;67.52;99722.81;6203560;28;20224;-72
2022/01/13 03:13:58;;;;;;;16.13;10.67;;;;;;;-1.54;67.35;99740.09;6225237;28;20234;-71
2022/01/13 03:17:00;;;;;;;17.97;11.50;;;;;;;-1.59;66.67;99744.38;6212453;28;20476;-72
2022/01/13 03:20:03;;;;;;;16.83;11.07;;;;;;;-1.61;67.90;99743.53;6219714;28;20349;-72
2022/01/13 03:23:06;;;;;;;19.57;12.87;;;;;;;-1.67;67.96;99721.94;6226738;28;20710;-71
2022/01/13 03:26:08;;;;;;;21.37;12.80;;;;;;;-1.72;68.49;99706.41;6227637;28;20227;-72
2022/01/13 03:32:12;;;;;;;20.53;13.17;;;;;;;-1.78;69.03;99703.81;6226759;28;20235;-72
2022/01/13 03:35:14;;;;;;;22.90;13.47;;;;;;;-1.82;69.45;99689.16;6228396;28;20224;-71
2022/01/13 03:38:16;;;;;;;22.33;13.37;;;;;;;-1.86;69.72;99693.44;6227424;28;20235;-71
2022/01/13 03:41:20;;;;;;;24.77;15.07;;;;;;;-1.91;70.08;99695.19;6224843;28;20310;-71
2022/01/13 03:44:28;;;;;;;21.50;13.23;;;;;;;-1.98;70.54;99671.84;6209002;28;20234;-72
2022/01/13 03:47:30;;;;;;;23.17;14.10;;;;;;;-2.07;71.08;99677.03;6224457;28;20224;-70
2022/01/13 03:50:32;;;;;;;20.37;12.93;;;;;;;-2.14;71.56;99683.03;6228550;28;20235;-72
2022/01/13 03:54:12;;;;;;;23.10;14.33;;;;;;;-2.16;71.60;99700.28;6211000;28;20580;-71
2022/01/13 03:57:50;;;;;;;26.23;15.00;;;;;;;-2.20;72.66;99699.41;6225225;28;20224;-71
2022/01/13 04:01:10;;;;;;;25.20;15.43;;;;;;;-2.22;72.58;99708.03;6226335;28;20231;-72
2022/01/13 04:04:13;;;;;;;28.67;16.27;;;;;;;-2.23;73.02;99712.34;6231266;28;20449;-71
2022/01/13 04:07:19;;;;;;;28.80;16.30;;;;;;;-2.22;72.60;99711.47;6232097;28;20227;-72
2022/01/13 04:10:46;;;;;;;23.73;14.47;;;;;;;-2.20;73.09;99714.94;6232621;28;20227;-71
2022/01/13 04:16:53;;;;;;;29.47;16.80;;;;;;;-2.20;73.77;99716.66;6231946;28;20239;-71
2022/01/13 04:19:55;;;;;;;27.80;16.57;;;;;;;-2.18;73.32;99733.88;6230778;28;20231;-72
2022/01/13 04:22:57;;;;;;;26.63;16.67;;;;;;;-2.17;73.21;99735.63;6231661;28;20597;-71
2022/01/13 04:26:00;;;;;;;28.50;16.43;;;;;;;-2.16;73.42;99715.78;6213237;28;20242;-72
2022/01/13 04:32:13;;;;;;;28.27;16.33;;;;;;;-2.18;73.71;99699.41;6231585;28;20356;-72
2022/01/13 04:35:16;;;;;;;26.23;15.40;;;;;;;-2.22;74.01;99698.53;6232721;28;20235;-71
2022/01/13 04:38:18;;;;;;;29.43;16.93;;;;;;;-2.24;74.14;99708.03;6231547;28;20289;-71
2022/01/13 04:41:30;;;;;;;27.43;15.37;;;;;;;-2.26;74.35;99714.91;6231964;28;20239;-71
2022/01/13 04:44:32;;;;;;;26.93;15.73;;;;;;;-2.31;74.44;99724.38;6215092;28;20223;-72
2022/01/13 04:47:34;;;;;;;30.00;16.83;;;;;;;-2.38;74.49;99744.16;6213931;28;20235;-70
2022/01/13 04:50:36;;;;;;;30.33;17.77;;;;;;;-2.42;74.98;99741.56;6231805;28;20238;-72
2022/01/13 04:53:38;;;;;;;28.77;17.03;;;;;;;-2.44;74.80;99745.84;6230834;28;20232;-71
2022/01/13 04:59:44;;;;;;;29.57;16.57;;;;;;;-2.56;75.42;99758.72;6230889;28;20236;-71
2022/01/13 05:02:46;;;;;;;26.80;16.27;;;;;;;-2.57;75.21;99763.00;6231316;28;20236;-71
2022/01/13 05:05:48;;;;;;;28.77;16.93;;;;;;;-2.54;74.94;99767.34;6213061;28;20250;-71
2022/01/13 05:08:50;;;;;;;27.30;16.97;;;;;;;-2.50;75.20;99761.34;6213612;28;20215;-71
2022/01/13 05:11:52;;;;;;;26.90;15.93;;;;;;;-2.43;75.40;99768.25;6230335;28;20839;-72
2022/01/13 05:14:58;;;;;;;27.93;15.53;;;;;;;-2.39;75.09;99772.56;6229931;28;20231;-71
2022/01/13 05:18:28;;;;;;;27.30;15.73;;;;;;;-2.34;74.49;99761.41;6229705;28;20270;-70
2022/01/13 05:22:06;;;;;;;26.63;15.70;;;;;;;-2.27;74.42;99759.72;6230630;28;20224;-72
2022/01/13 05:25:07;;;;;;;26.37;15.43;;;;;;;-2.20;74.79;99753.72;6228157;28;20318;-72
2022/01/13 05:28:11;;;;;;;24.07;15.43;;;;;;;-2.18;74.40;99746.81;6230364;28;20228;-72
2022/01/13 05:31:13;;;;;;;26.10;15.37;;;;;;;-2.20;74.75;99747.69;6231602;28;20239;-71
2022/01/13 05:34:17;;;;;;;23.40;14.13;;;;;;;-2.24;74.71;99746.81;6230344;28;20236;-72
2022/01/13 05:37:39;;;;;;;25.80;14.77;;;;;;;-2.17;75.01;99739.91;6215497;28;20243;-72
2022/01/13 05:40:41;;;;;;;25.90;16.40;;;;;;;-2.15;74.96;99733.91;6211812;28;20242;-72
2022/01/13 05:43:43;;;;;;;26.67;16.93;;;;;;;-2.14;74.38;99729.59;6229622;28;20238;-72
2022/01/13 05:46:45;;;;;;;26.00;15.07;;;;;;;-2.13;74.31;99726.16;6230614;28;20216;-71
2022/01/13 05:49:48;;;;;;;26.60;16.03;;;;;;;-2.16;74.34;99729.59;6243744;28;20231;-71
2022/01/13 05:52:51;;;;;;;25.90;16.57;;;;;;;-2.15;74.54;99728.72;6231393;28;20239;-71
2022/01/13 05:55:53;;;;;;;28.13;17.27;;;;;;;-2.16;74.79;99733.91;6228962;28;20243;-71
2022/01/13 05:58:55;;;;;;;28.30;16.67;;;;;;;-2.19;74.85;99720.94;6212721;28;20729;-71
2022/01/13 06:01:57;;;;;;;26.90;16.40;;;;;;;-2.18;74.84;99717.50;6212894;28;20246;-70
2022/01/13 06:04:59;;;;;;;28.13;16.83;;;;;;;-2.24;74.43;99711.47;6229923;28;20227;-70
2022/01/13 06:08:02;;;;;;;28.03;16.77;;;;;;;-2.26;74.42;99714.91;6229461;28;20251;-70
2022/01/13 06:11:04;;;;;;;29.27;17.03;;;;;;;-2.28;74.89;99720.06;6229456;28;20223;-70
2022/01/13 06:14:07;;;;;;;26.87;16.10;;;;;;;-2.27;74.82;99718.34;6229854;28;20231;-71
2022/01/13 06:17:09;;;;;;;27.70;16.20;;;;;;;-2.27;74.71;99724.38;6221100;28;20222;-70
2022/01/13 06:20:12;;;;;;;27.40;16.67;;;;;;;-2.28;74.80;99714.88;6229458;28;20721;-71
2022/01/13 06:23:15;;;;;;;31.07;17.40;;;;;;;-2.28;74.66;99729.53;6228493;28;20236;-70
2022/01/13 06:26:17;;;;;;;26.87;16.70;;;;;;;-2.27;74.81;99718.34;6211120;28;20235;-70
2022/01/13 06:29:19;;;;;;;29.63;17.37;;;;;;;-2.25;74.91;99714.03;6211640;28;20721;-70
2022/01/13 06:32:21;;;;;;;28.70;16.97;;;;;;;-2.27;75.41;99721.78;6226587;28;20231;-70
2022/01/13 06:35:24;;;;;;;28.90;17.10;;;;;;;-2.26;75.54;99714.91;6210290;28;20234;-70
2022/01/13 06:38:26;;;;;;;28.90;17.60;;;;;;;-2.27;75.57;99706.28;6212084;28;20239;-71
2022/01/13 06:41:28;;;;;;;27.53;16.83;;;;;;;-2.29;75.73;99726.09;6229530;28;20231;-70
2022/01/13 06:44:30;;;;;;;27.53;14.77;;;;;;;-2.29;75.41;99710.56;6229435;28;20238;-70
2022/01/13 06:47:32;;;;;;;25.83;14.90;;;;;;;-2.30;75.46;99721.81;6226931;28;20223;-70
2022/01/13 06:50:35;;;;;;;25.77;15.90;;;;;;;-2.33;75.87;99711.44;6228359;28;20677;-70
2022/01/13 06:53:37;;;;;;;28.57;16.47;;;;;;;-2.35;76.52;99717.44;6228260;28;20231;-70
2022/01/13 06:56:39;;;;;;;30.13;16.67;;;;;;;-2.41;76.37;99714.84;6227595;28;20593;-70
2022/01/13 06:59:42;;;;;;;29.33;16.87;;;;;;;-2.45;76.42;99719.13;6211319;28;20725;-70
2022/01/13 07:02:45;;;;;;;28.33;16.87;;;;;;;-2.49;76.44;99732.03;6227835;28;20231;-70
2022/01/13 07:05:48;;;;;;;27.87;16.30;;;;;;;-2.49;76.32;99725.13;6227742;28;20304;-70
2022/01/13 07:08:49;;;;;;;25.13;16.07;;;;;;;-2.52;76.09;99729.44;6227533;28;20232;-70
2022/01/13 07:11:51;;;;;;;28.03;15.97;;;;;;;-2.55;76.21;99726.84;6203495;28;20235;-70
2022/01/13 07:14:53;;;;;;;28.80;16.43;;;;;;;-2.61;76.28;99728.56;6224315;28;20319;-70
2022/01/13 07:17:55;;;;;;;30.03;17.10;;;;;;;-2.63;76.47;99739.72;6221554;28;20241;-70
2022/01/13 07:20:57;;;;;;;28.43;17.57;;;;;;;-2.65;76.38;99744.88;6227754;28;20235;-70
2022/01/13 07:23:59;;;;;;;28.47;17.43;;;;;;;-2.68;76.56;99750.03;6226874;28;20239;-70
2022/01/13 07:27:01;;;;;;;27.53;17.47;;;;;;;-2.70;76.17;99738.84;6226795;28;20557;-70
2022/01/13 07:30:04;;;;;;;27.70;16.53;;;;;;;-2.64;75.76;99738.00;6227591;28;20587;-70
2022/01/13 07:33:06;;;;;;;28.03;16.13;;;;;;;-2.59;74.93;99727.69;6226354;28;20595;-70
2022/01/13 07:36:08;;;;;;;26.40;15.83;;;;;;;-2.59;75.14;99718.19;6228316;28;20246;-70
2022/01/13 07:39:10;;;;;;;24.43;14.60;;;;;;;-2.53;74.55;99720.84;6234403;28;20211;-70
2022/01/13 07:42:12;;;;;;;27.27;14.60;;;;;;;-2.43;73.94;99724.31;6235623;28;20346;-70
2022/01/13 07:45:16;;;;;;;24.33;15.43;;;;;;;-2.37;73.53;99721.75;6233267;28;20330;-71
2022/01/13 07:48:19;;;;;;;22.03;13.67;;;;;;;-2.32;72.97;99730.41;6208995;28;20219;-70
2022/01/13 07:51:21;;;;;;;18.93;13.00;;;;;;;-2.23;72.65;99717.50;6236327;28;20220;-70
2022/01/13 07:54:25;;;;;;;21.90;12.43;;;;;;;-2.18;72.04;99723.53;6235011;28;20227;-70
2022/01/13 07:57:32;;;;;;;21.83;12.53;;;;;;;-2.09;71.77;99739.09;6235552;28;20216;-70
2022/01/13 08:00:34;;;;;;;21.73;12.97;;;;;;;-2.02;71.38;99740.84;6235298;28;20224;-72
2022/01/13 08:03:36;;;;;;;19.97;11.13;;;;;;;-1.96;70.82;99740.00;6235098;28;20273;-71
2022/01/13 08:06:38;;;;;;;18.03;11.37;;;;;;;-1.86;69.93;99740.03;6201281;28;20667;-71
2022/01/13 08:09:40;;;;;;;14.73;9.73;;;;;;;-1.70;69.61;99735.75;6233189;28;20310;-71
2022/01/13 08:12:42;;;;;;;14.87;9.77;;;;;;;-1.57;68.01;99728.84;6234161;28;20235;-72
2022/01/13 08:15:44;;;;;;;14.10;9.00;;;;;;;-1.44;67.97;99709.03;6235063;28;20227;-73
2022/01/13 08:22:06;;;;;;;13.33;8.10;;;;;;;-1.22;67.14;99709.03;6218088;28;20306;-72
2022/01/13 08:25:10;;;;;;;9.27;6.23;;;;;;;-1.06;65.96;99698.63;6234328;28;20219;-71
2022/01/13 08:28:13;;;;;;;10.93;7.93;;;;;;;-0.95;65.91;99710.72;6218450;28;21105;-71
2022/01/13 08:31:15;;;;;;;12.30;6.90;;;;;;;-0.91;65.67;99699.50;6235403;28;21972;-70
2022/01/13 08:34:17;;;;;;;11.40;7.53;;;;;;;-0.84;65.83;99724.53;6235136;28;20251;-72
2022/01/13 08:37:19;;;;;;;8.60;5.80;;;;;;;-0.75;65.60;99723.63;6234565;28;20741;-71
2022/01/13 08:40:21;;;;;;;11.53;6.03;;;;;;;-0.63;64.70;99713.25;6236183;28;20942;-72
2022/01/13 08:43:25;;;;;;;10.37;6.30;;;;;;;-0.59;64.96;99722.72;6233200;28;20389;-71
2022/01/13 08:46:27;;;;;;;10.50;6.17;;;;;;;-0.52;64.77;99715.81;6234045;28;20695;-71
2022/01/13 08:49:29;;;;;;;7.33;5.10;;;;;;;-0.40;64.91;99732.16;6231094;28;20224;-70
2022/01/13 08:52:33;;;;;;;6.87;4.57;;;;;;;-0.31;64.78;99727.84;6196566;28;20707;-71
2022/01/13 08:55:35;;;;;;;7.33;4.97;;;;;;;-0.15;65.25;99722.56;6230826;28;20754;-71
2022/01/13 08:58:38;;;;;;;7.70;4.73;;;;;;;0.05;64.78;99731.97;6230413;28;20605;-70
2022/01/13 09:01:40;;;;;;;6.33;4.07;;;;;;;0.25;64.36;99732.72;6213559;28;20281;-71
2022/01/13 09:04:42;;;;;;;6.00;4.00;;;;;;;0.41;64.19;99736.06;6229283;28;20318;-71
2022/01/13 09:07:44;;;;;;;5.30;3.63;;;;;;;0.52;64.53;99753.31;6212802;28;20232;-72
2022/01/13 09:10:47;;;;;;;7.93;4.10;;;;;;;0.63;63.45;99754.09;6212729;28;20627;-71
2022/01/13 09:13:56;;;;;;;5.93;3.40;;;;;;;0.84;63.42;99776.47;6230773;28;20258;-71
2022/01/13 09:17:00;;;;;;;4.93;3.23;;;;;;;0.99;63.26;99765.09;6230483;28;20721;-71
2022/01/13 09:20:02;;;;;;;5.40;3.40;;;;;;;1.15;62.19;99753.69;6211555;28;20227;-72
2022/01/13 09:23:04;;;;;;;4.07;2.87;;;;;;;1.32;61.79;99753.50;6229478;28;20232;-72
2022/01/13 09:26:06;;;;;;;3.87;3.03;;;;;;;1.45;61.70;99747.31;6227291;28;20267;-72
2022/01/13 09:29:10;;;;;;;4.27;2.77;;;;;;;1.60;61.77;99741.94;6225013;28;20244;-72
2022/01/13 09:32:12;;;;;;;4.33;3.00;;;;;;;1.76;61.19;99740.91;6229803;28;20694;-71
2022/01/13 09:35:15;;;;;;;3.97;2.93;;;;;;;2.02;59.90;99721.47;6229571;28;20776;-72
2022/01/13 09:38:17;;;;;;;3.87;2.90;;;;;;;2.29;58.92;99728.06;6221239;28;20327;-72
2022/01/13 09:41:21;;;;;;;4.60;3.10;;;;;;;2.47;58.60;99738.22;6206340;28;20220;-71
2022/01/13 09:44:27;;;;;;;4.10;2.87;;;;;;;2.69;58.37;99733.53;6205983;28;20639;-71
2022/01/13 09:47:29;;;;;;;4.40;2.93;;;;;;;2.84;57.60;99715.91;6209134;28;20230;-72
2022/01/13 09:50:32;;;;;;;4.50;2.83;;;;;;;3.07;57.06;99707.69;6209734;28;20298;-72
2022/01/13 09:53:35;;;;;;;4.13;3.40;;;;;;;3.17;55.95;99697.94;6209939;28;20247;-71
2022/01/13 09:56:37;;;;;;;3.30;2.70;;;;;;;3.28;55.51;99682.97;6205679;28;20233;-71
2022/01/13 09:59:40;;;;;;;4.37;2.90;;;;;;;3.53;54.93;99681.59;6205085;28;20224;-71
2022/01/13 10:02:42;;;;;;;3.30;2.07;;;;;;;3.69;54.78;99669.91;6203510;28;20646;-71
2022/01/13 10:05:55;;;;;;;3.20;2.30;;;;;;;3.77;54.92;99651.50;6205639;28;20244;-71
2022/01/13 10:08:58;;;;;;;3.30;2.20;;;;;;;3.95;54.21;99655.47;6205988;28;20222;-71
2022/01/13 10:12:06;;;;;;;2.93;2.13;;;;;;;4.09;54.21;99658.66;6205423;28;20225;-70
2022/01/13 10:18:40;;;;;;;3.07;2.50;;;;;;;4.03;53.69;99653.53;6203036;28;20247;-72
2022/01/13 10:21:55;;;;;;;2.73;1.80;;;;;;;4.16;55.22;99656.75;6204963;28;20221;-72
2022/01/13 10:24:58;;;;;;;3.03;2.17;;;;;;;4.32;54.22;99656.34;6221719;28;20230;-71
2022/01/13 10:28:20;;;;;;;2.73;2.07;;;;;;;4.36;52.40;99660.63;6202874;28;20249;-72
2022/01/13 10:31:51;;;;;;;2.50;1.90;;;;;;;4.52;52.86;99650.63;6205286;28;20240;-72
2022/01/13 10:35:02;;;;;;;4.33;2.40;;;;;;;4.51;52.42;99658.50;6211947;28;20318;-72
2022/01/13 10:38:04;;;;;;;2.37;1.93;;;;;;;4.54;51.79;99659.31;6231561;28;20338;-72
2022/01/13 10:41:29;;;;;;;2.33;1.80;;;;;;;4.52;52.08;99666.31;6234998;28;20263;-71
2022/01/13 10:44:55;;;;;;;2.20;1.47;;;;;;;4.67;53.53;99660.75;6224288;28;20577;-72
2022/01/13 10:48:10;;;;;;;2.80;2.13;;;;;;;4.79;52.10;99638.66;6236621;28;20241;-71
2022/01/13 10:51:11;;;;;;;2.30;1.80;;;;;;;4.73;52.84;99628.31;6235332;28;20278;-72
2022/01/13 10:54:24;;;;;;;2.10;1.70;;;;;;;4.69;51.74;99609.22;6233956;28;20251;-71
2022/01/13 10:57:27;;;;;;;2.97;2.10;;;;;;;4.47;52.89;99622.91;6235462;28;20226;-72
2022/01/13 11:00:32;;;;;;;2.27;1.83;;;;;;;4.75;53.27;99622.16;6234193;28;20233;-72
2022/01/13 11:03:39;;;;;;;2.43;1.80;;;;;;;4.70;52.63;99616.19;6232973;28;20292;-71
2022/01/13 11:06:41;;;;;;;2.60;1.90;;;;;;;4.58;52.95;99607.81;6235195;28;20325;-71
2022/01/13 11:10:01;;;;;;;1.87;1.67;;;;;;;4.44;52.98;99613.38;6236593;28;20242;-72
2022/01/13 11:13:06;;;;;;;2.97;1.67;;;;;;;4.55;52.93;99603.50;6217427;28;20239;-71
2022/01/13 11:16:08;;;;;;;1.77;1.30;;;;;;;4.69;53.61;99613.63;6224968;28;20236;-71
2022/01/13 11:19:13;;;;;;;1.40;1.30;;;;;;;4.62;53.03;99614.66;6210939;28;20249;-72
2022/01/13 11:22:17;;;;;;;1.40;1.20;;;;;;;4.25;54.56;99602.50;6235539;28;20247;-71
2022/01/13 11:25:23;;;;;;;1.83;1.50;;;;;;;4.25;54.38;99606.88;6234806;28;20230;-72
2022/01/13 11:28:26;;;;;;;1.80;1.50;;;;;;;4.30;55.14;99608.47;6236130;28;20239;-70
2022/01/13 11:31:28;;;;;;;1.37;1.27;;;;;;;4.36;54.31;99607.47;6236678;28;20242;-71
2022/01/13 11:34:31;;;;;;;2.13;1.30;;;;;;;4.06;54.86;99604.72;6234073;28;20233;-72
2022/01/13 11:37:34;;;;;;;2.47;1.50;;;;;;;4.00;55.80;99604.81;6236690;28;20333;-71
2022/01/13 11:40:42;;;;;;;2.23;1.30;;;;;;;3.89;55.90;99599.00;6233124;28;20239;-71
2022/01/13 11:43:44;;;;;;;1.73;1.37;;;;;;;3.85;56.15;99594.75;6202546;28;20241;-72
2022/01/13 11:46:49;;;;;;;3.07;1.60;;;;;;;3.84;56.76;99592.16;6206407;28;20229;-71
2022/01/13 11:50:03;;;;;;;1.93;1.57;;;;;;;3.76;56.95;99583.66;6192177;28;20227;-72
2022/01/13 11:53:25;;;;;;;1.83;1.30;;;;;;;3.79;56.98;99583.59;6227510;28;20228;-73
2022/01/13 11:56:28;;;;;;;2.03;1.67;;;;;;;3.72;57.07;99581.09;6215131;28;20638;-72
2022/01/13 11:59:30;;;;;;;2.47;1.63;;;;;;;3.76;57.60;99584.50;6226928;28;20332;-72
2022/01/13 12:02:38;;;;;;;3.70;1.57;;;;;;;3.80;57.06;99585.28;6225918;28;20737;-72
2022/01/13 12:05:42;;;;;;;1.63;1.33;;;;;;;3.94;56.89;99570.16;6226923;28;20745;-72
2022/01/13 12:08:54;;;;;;;1.90;1.70;;;;;;;4.11;56.32;99575.84;6231168;28;20978;-72
2022/01/13 12:11:56;;;;;;;2.73;2.07;;;;;;;4.35;56.26;99574.41;6208872;28;20242;-71
2022/01/13 12:15:19;;;;;;;2.27;1.73;;;;;;;4.65;55.88;99567.53;6227659;28;20646;-71
2022/01/13 12:18:43;;;;;;;2.53;1.97;;;;;;;4.85;54.48;99557.41;6209328;28;20238;-72
2022/01/13 12:22:00;;;;;;;2.40;1.83;;;;;;;5.04;54.44;99561.22;5350069;28;10000196;-72
2022/01/13 12:25:04;;;;;;;3.90;1.90;;;;;;;4.90;54.30;99562.47;6211531;28;20611;-72
2022/01/13 12:28:20;;;;;;;2.33;1.87;;;;;;;4.76;55.16;99565.50;6208337;28;20228;-72
2022/01/13 12:31:31;;;;;;;2.30;1.80;;;;;;;4.57;55.02;99564.25;6207967;28;20241;-72
2022/01/13 12:34:33;;;;;;;2.27;1.60;;;;;;;4.53;54.76;99576.53;6210422;28;20595;-72
2022/01/13 12:37:39;;;;;;;2.50;1.63;;;;;;;4.54;55.30;99566.94;6216447;28;20251;-72
2022/01/13 12:40:44;;;;;;;2.17;1.60;;;;;;;4.57;55.39;99559.03;6205120;28;20236;-71
2022/01/13 12:44:01;;;;;;;2.30;1.80;;;;;;;4.58;56.66;99558.13;6206106;28;20614;-72
2022/01/13 12:47:04;;;;;;;2.47;1.70;;;;;;;4.63;55.76;99549.25;6198485;28;20238;-72
2022/01/13 12:50:30;;;;;;;2.10;1.60;;;;;;;4.61;55.46;99537.97;6206872;28;20763;-73
2022/01/13 12:53:35;;;;;;;2.50;1.30;;;;;;;4.70;54.79;99518.56;6206973;28;22335;-73
2022/01/13 12:56:41;;;;;;;1.93;1.33;;;;;;;4.76;55.25;99532.34;6205717;28;20377;-72
2022/01/13 12:59:44;;;;;;;1.70;1.43;;;;;;;4.71;54.52;99525.50;6206253;28;20737;-72
2022/01/13 13:03:07;;;;;;;1.90;1.40;;;;;;;4.68;55.16;99521.25;6208063;28;20601;-72
2022/01/13 13:06:11;;;;;;;2.50;1.40;;;;;;;4.71;55.15;99528.13;6203740;28;20234;-73
2022/01/13 13:09:19;;;;;;;1.60;1.20;;;;;;;4.55;54.84;99545.13;6207060;28;20217;-72
2022/01/13 13:12:26;;;;;;;3.07;1.30;;;;;;;4.41;56.21;99533.25;6206277;28;20614;-73
2022/01/13 13:18:32;;;;;;;1.40;1.20;;;;;;;4.45;55.78;99540.16;6206810;28;20234;-72
2022/01/13 13:21:34;;;;;;;1.30;1.00;;;;;;;4.49;55.73;99525.25;6205618;28;20599;-73
2022/01/13 13:24:40;;;;;;;1.37;1.03;;;;;;;4.51;55.22;99546.09;6205683;28;20234;-72
2022/01/13 13:27:42;;;;;;;1.80;1.13;;;;;;;4.57;55.63;99551.19;6206524;28;20681;-73
2022/01/13 13:30:46;;;;;;;1.13;0.90;;;;;;;4.73;55.05;99534.19;6207081;28;20227;-72
2022/01/13 13:34:12;;;;;;;1.40;1.20;;;;;;;4.92;55.90;99532.78;6206228;28;20601;-72
2022/01/13 13:37:15;;;;;;;2.00;1.10;;;;;;;4.92;55.83;99542.38;6207363;28;20712;-72
2022/01/13 13:40:24;;;;;;;1.90;1.30;;;;;;;4.95;55.39;99524.00;6208939;28;20475;-73
2022/01/13 13:43:32;;;;;;;1.90;1.47;;;;;;;4.98;55.66;99529.16;6222230;28;20265;-73
2022/01/13 13:46:35;;;;;;;2.70;1.20;;;;;;;4.99;54.76;99531.69;6208967;28;20650;-72
2022/01/13 13:49:39;;;;;;;2.90;1.50;;;;;;;5.00;56.02;99530.78;6222702;28;20232;-73
2022/01/13 13:52:41;;;;;;;1.50;1.00;;;;;;;4.98;55.47;99519.53;6204356;28;20625;-72
2022/01/13 13:56:04;;;;;;;2.87;1.23;;;;;;;4.87;55.09;99539.03;6207600;28;20726;-71
2022/01/13 13:59:12;;;;;;;1.83;1.20;;;;;;;4.72;55.17;99525.47;6207053;28;20780;-74
2022/01/13 14:02:29;;;;;;;1.73;1.30;;;;;;;4.56;56.25;99525.94;6206037;28;20239;-73
2022/01/13 14:05:38;;;;;;;1.53;1.30;;;;;;;4.44;56.72;99538.44;6207250;28;20235;-73
2022/01/13 14:08:53;;;;;;;1.87;1.50;;;;;;;4.33;57.41;99555.28;6189370;28;20727;-72
2022/01/13 14:11:56;;;;;;;1.87;1.30;;;;;;;4.22;57.62;99545.09;6208655;28;20262;-72
2022/01/13 14:15:30;;;;;;;2.20;1.60;;;;;;;4.17;57.85;99544.34;6207030;28;20242;-75
2022/01/13 14:18:36;;;;;;;2.17;1.50;;;;;;;4.14;57.13;99536.59;6224239;28;20358;-73
2022/01/13 14:21:54;;;;;;;1.40;1.10;;;;;;;4.17;57.55;99535.66;6204910;28;20687;-75
2022/01/13 14:24:58;;;;;;;1.90;1.33;;;;;;;4.16;56.90;99557.47;6210827;28;20329;-73
2022/01/13 14:28:11;;;;;;;4.87;1.63;;;;;;;4.12;57.09;99540.97;6208489;28;20232;-72
2022/01/13 14:31:14;;;;;;;1.93;1.53;;;;;;;4.05;57.98;99523.75;6209014;28;20319;-74
2022/01/13 14:34:26;;;;;;;3.27;1.63;;;;;;;3.97;57.63;99523.09;6216065;28;20710;-74
2022/01/13 14:37:28;;;;;;;1.80;1.27;;;;;;;3.94;58.38;99530.97;6212695;28;20777;-73
2022/01/13 14:40:45;;;;;;;2.20;1.57;;;;;;;3.85;58.69;99537.28;6210404;28;20774;-73
2022/01/13 14:44:01;;;;;;;2.37;1.63;;;;;;;3.75;58.13;99529.69;6210397;28;20223;-74
2022/01/13 14:47:07;;;;;;;2.07;1.30;;;;;;;3.69;58.87;99528.94;6206880;28;20226;-72
2022/01/13 14:50:09;;;;;;;1.73;1.40;;;;;;;3.63;58.80;99529.09;6199780;28;20231;-73
2022/01/13 14:53:11;;;;;;;2.50;1.50;;;;;;;3.59;58.51;99508.31;6204309;28;20224;-72